Time;durP1;ratioP1;P1;durP2;ratioP2;P2;SDS_P1;SDS_P2;PMS_P1;PMS_P2;Temp;Humidity;BMP_temperature;BMP_pressure;BME280_temperature;BME280_humidity;BME280_pressure;Samples;Min_cycle;Max_cycle;Signal;HPM_P1;HPM_P2
2021/03/06 00:01:12;;;;;;;11.15;7.00;;;;;;;;;;5031760;28;20048;-69
2021/03/06 00:03:38;;;;;;;10.73;6.50;;;;;;;;;;5018957;28;20065;-69
2021/03/06 00:06:05;;;;;;;7.53;5.53;;;;;;;;;;5017450;28;20149;-69
2021/03/06 00:08:31;;;;;;;8.70;5.82;;;;;;;;;;5034595;28;20474;-69
2021/03/06 00:10:57;;;;;;;8.35;5.57;;;;;;;;;;5033768;28;20055;-69
2021/03/06 00:13:23;;;;;;;10.27;7.00;;;;;;;;;;5017648;28;20049;-69
2021/03/06 00:15:49;;;;;;;11.95;5.78;;;;;;;;;;5032950;28;20049;-69
2021/03/06 00:18:16;;;;;;;8.65;5.72;;;;;;;;;;5022922;28;20402;-69
2021/03/06 00:20:42;;;;;;;8.73;5.65;;;;;;;;;;5033414;28;20049;-69
2021/03/06 00:23:08;;;;;;;10.05;6.57;;;;;;;;;;5016980;28;20295;-69
2021/03/06 00:25:34;;;;;;;9.68;6.90;;;;;;;;;;5013615;28;20133;-70
2021/03/06 00:28:00;;;;;;;10.00;6.38;;;;;;;;;;5040993;28;20045;-70
2021/03/06 00:30:26;;;;;;;9.90;6.28;;;;;;;;;;5033356;28;20478;-69
2021/03/06 00:32:52;;;;;;;9.73;6.30;;;;;;;;;;5033288;28;20100;-69
2021/03/06 00:35:19;;;;;;;8.52;5.68;;;;;;;;;;5033085;28;20056;-69
2021/03/06 00:37:45;;;;;;;10.40;5.50;;;;;;;;;;5037712;28;20045;-70
2021/03/06 00:40:12;;;;;;;8.55;6.07;;;;;;;;;;5033335;28;20100;-70
2021/03/06 00:42:39;;;;;;;11.13;6.63;;;;;;;;;;5033296;28;20049;-70
2021/03/06 00:45:06;;;;;;;8.88;6.20;;;;;;;;;;5033285;28;20053;-70
2021/03/06 00:47:32;;;;;;;9.35;6.57;;;;;;;;;;5032981;28;20050;-70
2021/03/06 00:49:58;;;;;;;10.65;6.38;;;;;;;;;;5033052;28;20106;-69
2021/03/06 00:52:25;;;;;;;9.20;6.05;;;;;;;;;;5032634;28;20049;-70
2021/03/06 00:54:51;;;;;;;10.23;6.53;;;;;;;;;;5024038;28;20050;-70
2021/03/06 00:57:17;;;;;;;9.93;6.75;;;;;;;;;;5041842;28;20118;-70
2021/03/06 00:59:43;;;;;;;9.65;5.80;;;;;;;;;;5013747;28;20053;-70
2021/03/06 01:02:09;;;;;;;8.65;5.85;;;;;;;;;;5021519;28;20455;-70
2021/03/06 01:04:35;;;;;;;12.45;6.90;;;;;;;;;;5028489;28;20099;-70
2021/03/06 01:07:01;;;;;;;8.15;5.88;;;;;;;;;;5038682;28;20045;-70
2021/03/06 01:09:28;;;;;;;7.63;5.45;;;;;;;;;;5032268;28;20049;-70
2021/03/06 01:11:54;;;;;;;10.98;6.55;;;;;;;;;;5032416;28;20049;-70
2021/03/06 01:14:20;;;;;;;13.63;7.35;;;;;;;;;;5032881;28;20042;-70
2021/03/06 01:16:46;;;;;;;15.73;7.82;;;;;;;;;;5031856;28;20452;-70
2021/03/06 01:19:12;;;;;;;14.52;7.43;;;;;;;;;;5032338;28;20085;-70
2021/03/06 01:21:38;;;;;;;10.07;6.28;;;;;;;;;;5030957;28;20478;-70
2021/03/06 01:24:05;;;;;;;9.68;6.25;;;;;;;;;;5031644;28;20056;-70
2021/03/06 01:26:31;;;;;;;8.98;6.47;;;;;;;;;;5031371;28;20061;-70
2021/03/06 01:28:58;;;;;;;9.30;6.00;;;;;;;;;;5031119;28;20474;-70
2021/03/06 01:31:24;;;;;;;10.27;6.20;;;;;;;;;;5031539;28;20053;-70
2021/03/06 01:33:49;;;;;;;9.15;5.63;;;;;;;;;;5031766;28;20049;-70
2021/03/06 01:36:16;;;;;;;10.40;6.20;;;;;;;;;;5028748;28;20050;-70
2021/03/06 01:38:41;;;;;;;10.18;6.50;;;;;;;;;;5031738;28;20052;-70
2021/03/06 01:41:08;;;;;;;9.55;5.90;;;;;;;;;;5032520;28;20391;-70
2021/03/06 01:43:34;;;;;;;8.77;5.80;;;;;;;;;;5028621;28;20042;-70
2021/03/06 01:46:00;;;;;;;9.25;6.00;;;;;;;;;;5031199;28;20102;-70
2021/03/06 01:48:26;;;;;;;8.57;5.80;;;;;;;;;;5030339;28;20401;-70
2021/03/06 01:50:52;;;;;;;9.63;6.30;;;;;;;;;;5030655;28;20065;-70
2021/03/06 01:53:18;;;;;;;8.98;5.65;;;;;;;;;;5030370;28;20057;-70
2021/03/06 01:55:47;;;;;;;9.60;5.97;;;;;;;;;;5030982;28;20061;-70
2021/03/06 01:58:13;;;;;;;8.30;5.93;;;;;;;;;;5029781;28;20049;-70
2021/03/06 02:00:40;;;;;;;9.98;5.85;;;;;;;;;;5031894;28;20042;-68
2021/03/06 02:03:06;;;;;;;11.27;6.07;;;;;;;;;;5026340;28;20045;-68
2021/03/06 02:05:32;;;;;;;8.27;5.70;;;;;;;;;;5029327;28;20091;-69
2021/03/06 02:07:58;;;;;;;8.88;5.88;;;;;;;;;;5027444;28;20045;-68
2021/03/06 02:10:28;;;;;;;9.45;5.93;;;;;;;;;;5029804;28;20082;-68
2021/03/06 02:12:59;;;;;;;9.55;5.80;;;;;;;;;;5029465;28;20429;-69
2021/03/06 02:15:33;;;;;;;10.90;6.43;;;;;;;;;;5030006;28;20041;-69
2021/03/06 02:18:03;;;;;;;9.32;5.97;;;;;;;;;;5030764;28;20045;-68
2021/03/06 02:20:39;;;;;;;10.90;5.53;;;;;;;;;;5031041;28;20490;-69
2021/03/06 02:23:19;;;;;;;10.13;5.78;;;;;;;;;;5030195;28;20076;-69
2021/03/06 02:26:04;;;;;;;10.55;6.47;;;;;;;;;;5029894;28;20430;-69
2021/03/06 02:28:36;;;;;;;12.05;6.57;;;;;;;;;;5029182;28;20630;-69
2021/03/06 02:31:04;;;;;;;9.95;6.13;;;;;;;;;;5027687;28;20045;-69
2021/03/06 02:33:32;;;;;;;11.23;6.65;;;;;;;;;;5033185;28;20045;-69
2021/03/06 02:36:00;;;;;;;10.57;5.80;;;;;;;;;;5034666;28;20363;-69
2021/03/06 02:38:28;;;;;;;8.88;5.50;;;;;;;;;;5034197;28;20076;-69
2021/03/06 02:40:55;;;;;;;10.73;6.78;;;;;;;;;;5033113;28;20053;-69
2021/03/06 02:43:22;;;;;;;11.20;7.30;;;;;;;;;;5029696;28;20052;-69
2021/03/06 02:45:49;;;;;;;12.63;6.70;;;;;;;;;;5033804;28;20049;-68
2021/03/06 02:48:15;;;;;;;11.05;7.13;;;;;;;;;;5034102;28;20068;-68
2021/03/06 02:50:42;;;;;;;9.75;5.82;;;;;;;;;;5031094;28;20597;-68
2021/03/06 02:53:08;;;;;;;9.38;6.13;;;;;;;;;;5033672;28;20091;-68
2021/03/06 02:55:34;;;;;;;11.82;6.95;;;;;;;;;;5033800;28;20045;-68
2021/03/06 02:58:28;;;;;;;10.93;7.38;;;;;;;;;;5032333;28;20125;-68
2021/03/06 03:01:01;;;;;;;11.52;6.72;;;;;;;;;;5032998;28;20068;-68
2021/03/06 03:03:37;;;;;;;10.25;6.75;;;;;;;;;;5021855;28;20061;-68
2021/03/06 03:06:10;;;;;;;15.20;7.30;;;;;;;;;;5014729;28;20050;-68
2021/03/06 03:08:38;;;;;;;13.73;7.97;;;;;;;;;;5014914;28;20538;-68
2021/03/06 03:11:09;;;;;;;15.60;7.82;;;;;;;;;;5014923;28;20140;-68
2021/03/06 03:13:39;;;;;;;13.75;8.38;;;;;;;;;;5027952;28;20053;-68
2021/03/06 03:16:10;;;;;;;13.55;7.72;;;;;;;;;;5034581;28;20052;-68
2021/03/06 03:18:38;;;;;;;13.98;7.95;;;;;;;;;;5034166;28;20046;-68
2021/03/06 03:21:05;;;;;;;11.70;7.07;;;;;;;;;;5034528;28;20050;-68
2021/03/06 03:23:34;;;;;;;11.32;6.88;;;;;;;;;;5034289;28;20079;-68
2021/03/06 03:26:03;;;;;;;12.57;7.13;;;;;;;;;;5034379;28;20073;-68
2021/03/06 03:28:31;;;;;;;9.60;6.03;;;;;;;;;;5024657;28;20049;-68
2021/03/06 03:30:59;;;;;;;11.65;7.15;;;;;;;;;;5030939;28;20051;-68
2021/03/06 03:33:25;;;;;;;10.52;5.93;;;;;;;;;;5045838;28;20473;-68
2021/03/06 03:35:52;;;;;;;13.73;7.90;;;;;;;;;;5054137;28;20053;-68
2021/03/06 03:38:19;;;;;;;11.25;6.28;;;;;;;;;;5053723;28;20045;-68
2021/03/06 03:40:46;;;;;;;9.40;5.97;;;;;;;;;;5053769;28;20102;-68
2021/03/06 03:43:12;;;;;;;8.82;5.03;;;;;;;;;;5037137;28;20042;-68
2021/03/06 03:45:38;;;;;;;10.13;5.60;;;;;;;;;;5033397;28;20060;-68
2021/03/06 03:48:05;;;;;;;10.85;6.05;;;;;;;;;;5033868;28;20097;-68
2021/03/06 03:50:31;;;;;;;8.90;5.75;;;;;;;;;;5033871;28;20056;-68
2021/03/06 03:52:58;;;;;;;10.23;5.68;;;;;;;;;;5033595;28;20099;-68
2021/03/06 03:55:24;;;;;;;10.40;5.88;;;;;;;;;;5033680;28;20046;-68
2021/03/06 03:57:50;;;;;;;8.98;5.68;;;;;;;;;;5027494;28;20041;-68
2021/03/06 04:00:18;;;;;;;10.15;6.28;;;;;;;;;;5013800;28;20056;-68
2021/03/06 04:02:44;;;;;;;16.15;6.97;;;;;;;;;;5013713;28;20046;-68
2021/03/06 04:05:11;;;;;;;10.88;6.57;;;;;;;;;;5013701;28;20483;-69
2021/03/06 04:07:44;;;;;;;11.27;6.60;;;;;;;;;;5030383;28;20053;-68
2021/03/06 04:10:12;;;;;;;9.65;5.35;;;;;;;;;;5033306;28;20056;-68
2021/03/06 04:12:39;;;;;;;9.60;5.95;;;;;;;;;;5032243;28;20051;-68
2021/03/06 04:15:06;;;;;;;10.18;5.63;;;;;;;;;;5032908;28;20052;-69
2021/03/06 04:17:32;;;;;;;9.35;5.57;;;;;;;;;;5033121;28;20049;-68
2021/03/06 04:19:58;;;;;;;9.88;6.00;;;;;;;;;;5033368;28;20045;-68
2021/03/06 04:22:24;;;;;;;10.57;6.30;;;;;;;;;;5032986;28;20060;-68
2021/03/06 04:24:50;;;;;;;11.55;6.18;;;;;;;;;;5032824;28;20037;-68
2021/03/06 04:27:17;;;;;;;10.70;6.22;;;;;;;;;;5032011;28;20057;-68
2021/03/06 04:29:43;;;;;;;10.07;6.15;;;;;;;;;;5013467;28;20119;-68
2021/03/06 04:32:09;;;;;;;10.30;5.68;;;;;;;;;;5013279;28;20475;-68
2021/03/06 04:34:35;;;;;;;10.85;5.82;;;;;;;;;;5013294;28;20041;-68
2021/03/06 04:37:01;;;;;;;13.15;6.50;;;;;;;;;;5013105;28;20502;-68
2021/03/06 04:39:27;;;;;;;10.82;5.93;;;;;;;;;;5013090;28;20049;-68
2021/03/06 04:41:53;;;;;;;8.77;5.90;;;;;;;;;;5015546;28;20045;-68
2021/03/06 04:44:20;;;;;;;10.15;5.47;;;;;;;;;;5032780;28;20405;-68
2021/03/06 04:46:46;;;;;;;10.25;5.50;;;;;;;;;;5032938;28;20053;-68
2021/03/06 04:49:12;;;;;;;9.80;5.90;;;;;;;;;;5032456;28;20056;-68
2021/03/06 04:51:38;;;;;;;12.23;5.88;;;;;;;;;;5018629;28;20056;-68
2021/03/06 04:54:04;;;;;;;10.82;6.55;;;;;;;;;;5012981;28;20050;-68
2021/03/06 04:56:30;;;;;;;11.63;6.63;;;;;;;;;;5012398;28;20103;-68
2021/03/06 04:58:56;;;;;;;10.38;5.50;;;;;;;;;;5028674;28;20456;-68
2021/03/06 05:01:23;;;;;;;9.80;5.88;;;;;;;;;;5032007;28;20054;-68
2021/03/06 05:03:49;;;;;;;9.30;5.50;;;;;;;;;;5032419;28;20539;-68
2021/03/06 05:06:15;;;;;;;9.18;5.45;;;;;;;;;;5013359;28;20049;-68
2021/03/06 05:08:41;;;;;;;9.38;5.25;;;;;;;;;;5012627;28;20060;-68
2021/03/06 05:11:07;;;;;;;9.30;5.25;;;;;;;;;;5012963;28;20054;-68
2021/03/06 05:13:33;;;;;;;9.88;5.30;;;;;;;;;;5031374;28;20060;-68
2021/03/06 05:15:59;;;;;;;11.77;6.55;;;;;;;;;;5032473;28;20491;-68
2021/03/06 05:18:26;;;;;;;8.30;5.13;;;;;;;;;;5032290;28;20049;-68
2021/03/06 05:20:52;;;;;;;11.90;6.28;;;;;;;;;;5032244;28;20049;-68
2021/03/06 05:23:18;;;;;;;10.77;5.40;;;;;;;;;;5032191;28;20053;-68
2021/03/06 05:25:44;;;;;;;10.00;5.50;;;;;;;;;;5031992;28;20041;-68
2021/03/06 05:28:10;;;;;;;10.43;6.00;;;;;;;;;;5031725;28;20132;-68
2021/03/06 05:30:36;;;;;;;10.10;5.53;;;;;;;;;;5032257;28;20179;-68
2021/03/06 05:33:03;;;;;;;14.52;6.82;;;;;;;;;;5032110;28;20486;-68
2021/03/06 05:35:30;;;;;;;8.50;5.28;;;;;;;;;;5032199;28;20049;-68
2021/03/06 05:37:56;;;;;;;9.48;6.00;;;;;;;;;;5032038;28;20056;-68
2021/03/06 05:40:22;;;;;;;9.63;5.68;;;;;;;;;;5032064;28;20057;-68
2021/03/06 05:42:49;;;;;;;9.23;5.97;;;;;;;;;;5019423;28;20512;-68
2021/03/06 05:45:15;;;;;;;11.75;5.75;;;;;;;;;;5012386;28;20100;-68
2021/03/06 05:47:41;;;;;;;9.02;5.50;;;;;;;;;;5014299;28;20050;-68
2021/03/06 05:50:08;;;;;;;8.73;5.47;;;;;;;;;;5040215;28;20100;-68
2021/03/06 05:52:36;;;;;;;10.32;5.00;;;;;;;;;;5032100;28;20056;-68
2021/03/06 05:55:03;;;;;;;9.77;5.32;;;;;;;;;;5031725;28;20502;-68
2021/03/06 05:57:29;;;;;;;10.32;6.28;;;;;;;;;;5031185;28;20057;-68
2021/03/06 05:59:56;;;;;;;9.32;5.38;;;;;;;;;;5031901;28;20088;-68
2021/03/06 06:02:22;;;;;;;8.93;5.13;;;;;;;;;;5031767;28;20053;-68
2021/03/06 06:04:48;;;;;;;10.48;5.95;;;;;;;;;;5031721;28;20046;-68
2021/03/06 06:07:16;;;;;;;10.15;5.28;;;;;;;;;;5034345;28;20049;-68
2021/03/06 06:09:43;;;;;;;10.32;5.65;;;;;;;;;;5036187;28;20482;-68
2021/03/06 06:12:10;;;;;;;10.90;5.55;;;;;;;;;;5028539;28;20046;-68
2021/03/06 06:14:36;;;;;;;8.88;5.05;;;;;;;;;;5016073;28;20057;-68
2021/03/06 06:17:05;;;;;;;10.13;5.53;;;;;;;;;;5015570;28;20054;-68
2021/03/06 06:19:32;;;;;;;10.88;5.85;;;;;;;;;;5015817;28;20148;-68
2021/03/06 06:21:59;;;;;;;8.63;5.03;;;;;;;;;;5015577;28;20045;-68
2021/03/06 06:24:26;;;;;;;9.13;5.72;;;;;;;;;;5016013;28;20050;-68
2021/03/06 06:26:55;;;;;;;9.60;5.90;;;;;;;;;;5017056;28;20060;-68
2021/03/06 06:29:38;;;;;;;12.07;5.68;;;;;;;;;;5035070;28;20055;-68
2021/03/06 06:32:05;;;;;;;7.72;5.03;;;;;;;;;;5035116;28;20054;-68
2021/03/06 06:34:31;;;;;;;9.02;5.43;;;;;;;;;;5035092;28;20494;-68
2021/03/06 06:36:57;;;;;;;9.90;5.57;;;;;;;;;;5035019;28;20053;-68
2021/03/06 06:39:31;;;;;;;10.75;6.50;;;;;;;;;;5035154;28;20053;-68
2021/03/06 06:41:59;;;;;;;12.80;6.43;;;;;;;;;;5027191;28;20133;-68
2021/03/06 06:44:26;;;;;;;8.50;5.15;;;;;;;;;;5014969;28;20103;-68
2021/03/06 06:46:54;;;;;;;9.43;5.38;;;;;;;;;;5015411;28;20054;-68
2021/03/06 06:49:21;;;;;;;9.43;5.30;;;;;;;;;;5015382;28;20081;-68
2021/03/06 06:51:57;;;;;;;9.70;5.25;;;;;;;;;;5015197;28;20050;-68
2021/03/06 06:54:24;;;;;;;9.98;5.70;;;;;;;;;;5014996;28;20049;-68
2021/03/06 06:56:50;;;;;;;10.35;6.18;;;;;;;;;;5018140;28;20106;-68
2021/03/06 06:59:18;;;;;;;8.63;5.03;;;;;;;;;;5034607;28;20381;-68
2021/03/06 07:01:44;;;;;;;10.45;5.78;;;;;;;;;;5034721;28;20414;-68
2021/03/06 07:04:12;;;;;;;8.45;5.32;;;;;;;;;;5034758;28;20051;-68
2021/03/06 07:06:38;;;;;;;12.02;5.88;;;;;;;;;;5034378;28;20445;-68
2021/03/06 07:09:09;;;;;;;12.25;5.72;;;;;;;;;;5033945;28;20098;-68
2021/03/06 07:11:35;;;;;;;9.95;5.28;;;;;;;;;;5031373;28;20492;-68
2021/03/06 07:14:02;;;;;;;9.52;5.10;;;;;;;;;;5033713;28;20466;-68
2021/03/06 07:16:55;;;;;;;9.30;5.70;;;;;;;;;;5032282;28;20041;-68
2021/03/06 07:19:21;;;;;;;10.23;5.32;;;;;;;;;;5032527;28;20068;-69
2021/03/06 07:21:47;;;;;;;9.75;5.20;;;;;;;;;;5031327;28;20466;-68
2021/03/06 07:24:14;;;;;;;9.90;5.95;;;;;;;;;;5034108;28;20058;-69
2021/03/06 07:26:40;;;;;;;9.65;5.70;;;;;;;;;;5032542;28;20033;-68
2021/03/06 07:29:06;;;;;;;11.55;5.82;;;;;;;;;;5031692;28;20137;-69
2021/03/06 07:31:33;;;;;;;10.50;5.88;;;;;;;;;;5033855;28;20053;-69
2021/03/06 07:34:00;;;;;;;10.40;5.53;;;;;;;;;;5033698;28;20052;-69
2021/03/06 07:36:26;;;;;;;10.65;5.70;;;;;;;;;;5033683;28;20037;-69
2021/03/06 07:38:52;;;;;;;14.32;5.38;;;;;;;;;;5033645;28;20056;-69
2021/03/06 07:41:20;;;;;;;10.40;4.75;;;;;;;;;;5033603;28;20045;-69
2021/03/06 07:43:47;;;;;;;8.95;5.25;;;;;;;;;;5033281;28;20056;-69
2021/03/06 07:46:16;;;;;;;9.82;4.95;;;;;;;;;;5033895;28;20045;-69
2021/03/06 07:48:48;;;;;;;10.63;4.68;;;;;;;;;;5033974;28;20053;-69
2021/03/06 07:51:15;;;;;;;9.57;4.57;;;;;;;;;;5033689;28;20053;-69
2021/03/06 07:53:44;;;;;;;8.93;4.95;;;;;;;;;;5032762;28;20540;-69
2021/03/06 07:56:10;;;;;;;7.00;4.25;;;;;;;;;;5031282;28;20633;-69
2021/03/06 07:58:46;;;;;;;8.52;4.38;;;;;;;;;;5029949;28;20052;-69
2021/03/06 08:01:23;;;;;;;;;;;;;;;;;;5027467;28;20505;-69
2021/03/06 08:03:51;;;;;;;7.47;4.38;;;;;;;;;;5031361;28;19964;-69
2021/03/06 08:06:20;;;;;;;10.05;4.38;;;;;;;;;;5032868;28;20505;-69
2021/03/06 08:09:08;;;;;;;6.90;4.35;;;;;;;;;;5033488;28;20587;-69
2021/03/06 08:11:44;;;;;;;6.30;3.67;;;;;;;;;;5031186;28;20049;-69
2021/03/06 08:14:30;;;;;;;9.13;4.30;;;;;;;;;;5030849;28;20052;-69
2021/03/06 08:16:56;;;;;;;7.40;4.53;;;;;;;;;;5031536;28;20073;-69
2021/03/06 08:19:32;;;;;;;7.75;4.43;;;;;;;;;;5033063;28;20724;-69
2021/03/06 08:22:16;;;;;;;7.10;3.88;;;;;;;;;;5031572;28;20045;-69
2021/03/06 08:24:42;;;;;;;7.43;3.67;;;;;;;;;;5028903;28;20054;-69
2021/03/06 08:27:26;;;;;;;5.47;3.50;;;;;;;;;;5029494;28;20041;-69
2021/03/06 08:29:56;;;;;;;7.32;3.83;;;;;;;;;;5031056;28;20049;-69
2021/03/06 08:32:37;;;;;;;7.47;3.70;;;;;;;;;;5032962;28;20123;-69
2021/03/06 08:35:32;;;;;;;8.43;4.30;;;;;;;;;;5032977;28;20504;-69
2021/03/06 08:37:58;;;;;;;6.00;3.78;;;;;;;;;;5008610;28;20501;-69
2021/03/06 08:40:27;;;;;;;7.07;3.83;;;;;;;;;;5032843;28;20083;-69
2021/03/06 08:42:57;;;;;;;6.50;3.65;;;;;;;;;;5032670;28;20073;-69
2021/03/06 08:45:24;;;;;;;7.20;4.03;;;;;;;;;;5032731;28;20545;-70
2021/03/06 08:47:54;;;;;;;7.05;4.05;;;;;;;;;;5032681;28;20041;-69
2021/03/06 08:50:22;;;;;;;6.72;3.78;;;;;;;;;;5032322;28;20045;-69
2021/03/06 08:52:58;;;;;;;7.05;3.38;;;;;;;;;;5032265;28;20052;-69
2021/03/06 08:55:26;;;;;;;6.22;3.60;;;;;;;;;;5032901;28;20064;-69
2021/03/06 08:57:52;;;;;;;6.55;3.88;;;;;;;;;;5020524;28;20046;-69
2021/03/06 09:00:21;;;;;;;6.30;4.03;;;;;;;;;;5030553;28;20472;-69
2021/03/06 09:02:48;;;;;;;7.97;4.32;;;;;;;;;;5032743;28;20049;-70
2021/03/06 09:05:15;;;;;;;7.60;3.53;;;;;;;;;;5022103;28;20053;-70
2021/03/06 09:07:42;;;;;;;7.13;3.53;;;;;;;;;;5012788;28;20050;-70
2021/03/06 09:10:15;;;;;;;7.22;3.95;;;;;;;;;;5012766;28;20391;-70
2021/03/06 09:12:41;;;;;;;5.35;3.47;;;;;;;;;;5012797;28;20417;-70
2021/03/06 09:15:08;;;;;;;11.57;3.60;;;;;;;;;;5012589;28;20046;-69
2021/03/06 09:17:34;;;;;;;5.35;3.40;;;;;;;;;;5018648;28;20045;-70
2021/03/06 09:20:03;;;;;;;6.32;3.38;;;;;;;;;;5030471;28;20712;-68
2021/03/06 09:22:39;;;;;;;7.32;3.30;;;;;;;;;;5030063;28;20390;-69
2021/03/06 09:25:06;;;;;;;6.88;3.72;;;;;;;;;;5030679;28;20060;-69
2021/03/06 09:27:43;;;;;;;14.00;4.90;;;;;;;;;;5030028;28;20167;-69
2021/03/06 09:30:19;;;;;;;6.00;3.70;;;;;;;;;;5029122;28;20409;-69
2021/03/06 09:32:45;;;;;;;7.47;3.75;;;;;;;;;;5029302;28;20502;-70
2021/03/06 09:35:13;;;;;;;5.75;3.85;;;;;;;;;;5030573;28;20080;-69
2021/03/06 09:37:39;;;;;;;24.80;4.30;;;;;;;;;;5032111;28;20053;-69
2021/03/06 09:40:16;;;;;;;7.68;4.45;;;;;;;;;;5032489;28;20474;-69
2021/03/06 09:42:43;;;;;;;5.57;3.38;;;;;;;;;;5034589;28;20049;-71
2021/03/06 09:45:10;;;;;;;7.32;4.32;;;;;;;;;;5030267;28;20049;-69
2021/03/06 09:47:36;;;;;;;6.57;3.70;;;;;;;;;;5038080;28;20075;-69
2021/03/06 09:50:02;;;;;;;5.97;3.42;;;;;;;;;;5037057;28;20076;-68
2021/03/06 09:52:32;;;;;;;5.88;3.47;;;;;;;;;;5033396;28;20048;-68
2021/03/06 09:54:58;;;;;;;5.22;3.78;;;;;;;;;;5026297;28;20045;-68
2021/03/06 09:57:24;;;;;;;5.78;3.78;;;;;;;;;;5023323;28;20099;-68
2021/03/06 09:59:51;;;;;;;6.75;3.85;;;;;;;;;;5034169;28;20057;-68
2021/03/06 10:02:22;;;;;;;6.75;3.47;;;;;;;;;;5035355;28;20045;-68
2021/03/06 10:04:49;;;;;;;7.00;3.70;;;;;;;;;;5029317;28;20061;-68
2021/03/06 10:07:15;;;;;;;5.82;3.72;;;;;;;;;;5035168;28;20049;-68
2021/03/06 10:09:42;;;;;;;5.18;3.72;;;;;;;;;;5035730;28;20497;-69
2021/03/06 10:12:10;;;;;;;6.80;5.03;;;;;;;;;;5035573;28;20494;-69
2021/03/06 10:14:36;;;;;;;6.43;3.95;;;;;;;;;;5030769;28;20060;-69
2021/03/06 10:17:05;;;;;;;7.13;3.95;;;;;;;;;;5035750;28;20060;-68
2021/03/06 10:19:33;;;;;;;21.67;3.90;;;;;;;;;;5034356;28;20406;-68
2021/03/06 10:22:02;;;;;;;5.47;3.63;;;;;;;;;;5035410;28;20072;-69
2021/03/06 10:24:28;;;;;;;4.60;3.25;;;;;;;;;;5032878;28;20394;-68
2021/03/06 10:26:55;;;;;;;5.75;3.65;;;;;;;;;;5034377;28;20053;-68
2021/03/06 10:29:22;;;;;;;5.72;3.50;;;;;;;;;;5034366;28;20042;-69
2021/03/06 10:31:55;;;;;;;4.28;2.65;;;;;;;;;;5033508;28;20474;-69
2021/03/06 10:34:24;;;;;;;6.20;3.08;;;;;;;;;;5033856;28;20045;-70
2021/03/06 10:37:11;;;;;;;6.68;3.53;;;;;;;;;;5034208;28;20418;-69
2021/03/06 10:39:55;;;;;;;7.53;4.35;;;;;;;;;;5032882;28;20379;-69
2021/03/06 10:42:21;;;;;;;7.50;4.07;;;;;;;;;;5033528;28;20083;-69
2021/03/06 10:44:47;;;;;;;4.73;3.23;;;;;;;;;;5033671;28;20045;-73
2021/03/06 10:47:13;;;;;;;5.88;3.45;;;;;;;;;;5033836;28;20060;-73
2021/03/06 10:49:42;;;;;;;6.15;3.03;;;;;;;;;;5033275;28;20045;-73
2021/03/06 10:52:23;;;;;;;6.07;3.35;;;;;;;;;;5031726;28;20046;-73
2021/03/06 10:54:50;;;;;;;5.47;3.10;;;;;;;;;;5034002;28;20484;-73
2021/03/06 10:57:16;;;;;;;4.93;3.75;;;;;;;;;;5028323;28;20045;-69
2021/03/06 10:59:42;;;;;;;6.45;2.83;;;;;;;;;;5032953;28;20049;-69
2021/03/06 11:02:11;;;;;;;7.55;3.45;;;;;;;;;;5034490;28;20378;-69
2021/03/06 11:04:37;;;;;;;3.95;2.55;;;;;;;;;;5032290;28;20401;-69
2021/03/06 11:07:06;;;;;;;4.72;2.90;;;;;;;;;;5031337;28;20061;-70
2021/03/06 11:09:33;;;;;;;4.05;2.50;;;;;;;;;;5030152;28;20051;-68
2021/03/06 11:12:17;;;;;;;3.97;2.28;;;;;;;;;;5031001;28;20486;-70
2021/03/06 11:14:43;;;;;;;3.80;2.42;;;;;;;;;;5030266;28;20409;-71
2021/03/06 11:17:14;;;;;;;7.85;3.55;;;;;;;;;;5033487;28;20050;-71
2021/03/06 11:19:42;;;;;;;4.63;2.70;;;;;;;;;;5034380;28;20444;-71
2021/03/06 11:22:09;;;;;;;4.45;2.75;;;;;;;;;;5034059;28;20104;-71
2021/03/06 11:24:35;;;;;;;4.57;2.88;;;;;;;;;;5033979;28;20478;-73
2021/03/06 11:27:02;;;;;;;8.25;3.22;;;;;;;;;;5034038;28;20048;-72
2021/03/06 11:29:28;;;;;;;6.97;3.70;;;;;;;;;;5032051;28;20064;-71
2021/03/06 11:31:55;;;;;;;7.30;3.95;;;;;;;;;;5033893;28;20068;-73
2021/03/06 11:34:21;;;;;;;5.18;2.85;;;;;;;;;;5033747;28;20664;-72
2021/03/06 11:36:47;;;;;;;5.18;3.00;;;;;;;;;;5033518;28;20483;-68
2021/03/06 11:39:13;;;;;;;5.60;3.00;;;;;;;;;;5033963;28;20080;-70
2021/03/06 11:41:40;;;;;;;5.72;2.67;;;;;;;;;;5033924;28;20049;-70
2021/03/06 11:44:07;;;;;;;5.82;2.50;;;;;;;;;;5033987;28;20065;-70
2021/03/06 11:46:33;;;;;;;6.22;3.25;;;;;;;;;;5028935;28;20045;-71
2021/03/06 11:48:59;;;;;;;3.78;2.50;;;;;;;;;;5031758;28;20090;-69
2021/03/06 11:51:25;;;;;;;3.92;2.30;;;;;;;;;;5033357;28;20557;-70
2021/03/06 11:53:51;;;;;;;4.65;1.90;;;;;;;;;;5033487;28;20045;-71
2021/03/06 11:56:18;;;;;;;6.70;3.50;;;;;;;;;;5033353;28;20069;-68
2021/03/06 11:58:44;;;;;;;4.80;2.33;;;;;;;;;;5030777;28;20056;-68
2021/03/06 12:01:10;;;;;;;4.55;2.90;;;;;;;;;;5033366;28;20394;-69
2021/03/06 12:03:36;;;;;;;3.97;2.42;;;;;;;;;;5032837;28;20042;-68
2021/03/06 12:06:02;;;;;;;3.63;1.88;;;;;;;;;;5032971;28;20068;-69
2021/03/06 12:08:28;;;;;;;5.72;2.42;;;;;;;;;;5032674;28;20052;-68
2021/03/06 12:10:54;;;;;;;4.90;3.25;;;;;;;;;;5032980;28;20136;-68
2021/03/06 12:13:21;;;;;;;3.88;2.50;;;;;;;;;;5032937;28;20073;-68
2021/03/06 12:15:47;;;;;;;5.20;2.58;;;;;;;;;;5032112;28;20053;-68
2021/03/06 12:18:13;;;;;;;4.07;2.33;;;;;;;;;;5040662;28;20048;-68
2021/03/06 12:20:39;;;;;;;3.70;2.50;;;;;;;;;;5028542;28;20142;-67
2021/03/06 12:23:05;;;;;;;4.80;2.80;;;;;;;;;;5033246;28;20053;-69
2021/03/06 12:25:31;;;;;;;4.68;2.60;;;;;;;;;;5032896;28;20077;-67
2021/03/06 12:27:57;;;;;;;2.95;2.17;;;;;;;;;;5032863;28;20107;-68
2021/03/06 12:30:24;;;;;;;3.03;1.90;;;;;;;;;;5032908;28;20088;-67
2021/03/06 12:32:51;;;;;;;4.80;2.30;;;;;;;;;;5036731;28;20045;-68
2021/03/06 12:35:18;;;;;;;3.10;2.10;;;;;;;;;;5051806;28;20073;-67
2021/03/06 12:37:44;;;;;;;4.43;2.03;;;;;;;;;;5041756;28;20055;-68
2021/03/06 12:40:11;;;;;;;4.30;2.42;;;;;;;;;;5032557;28;20056;-68
2021/03/06 12:42:37;;;;;;;3.63;2.15;;;;;;;;;;5032298;28;20053;-68
2021/03/06 12:45:05;;;;;;;5.95;2.17;;;;;;;;;;5035636;28;20064;-68
2021/03/06 12:47:32;;;;;;;3.17;2.00;;;;;;;;;;5032563;28;20057;-68
2021/03/06 12:49:58;;;;;;;3.33;2.20;;;;;;;;;;5032569;28;20080;-67
2021/03/06 12:52:24;;;;;;;4.20;2.30;;;;;;;;;;5032478;28;20053;-67
2021/03/06 12:54:50;;;;;;;8.95;2.35;;;;;;;;;;5032615;28;20108;-67
2021/03/06 12:57:16;;;;;;;5.35;2.10;;;;;;;;;;5032497;28;20050;-67
2021/03/06 12:59:42;;;;;;;3.63;2.05;;;;;;;;;;5032344;28;20474;-67
2021/03/06 13:02:08;;;;;;;6.43;2.50;;;;;;;;;;5032099;28;20136;-67
2021/03/06 13:04:35;;;;;;;5.18;2.65;;;;;;;;;;5031766;28;20049;-67
2021/03/06 13:07:01;;;;;;;5.68;2.45;;;;;;;;;;5032337;28;20049;-68
2021/03/06 13:09:27;;;;;;;4.53;2.10;;;;;;;;;;5032312;28;20049;-67
2021/03/06 13:11:53;;;;;;;3.63;2.25;;;;;;;;;;5031881;28;20049;-68
2021/03/06 13:14:19;;;;;;;4.35;2.53;;;;;;;;;;5032406;28;20097;-68
2021/03/06 13:16:45;;;;;;;14.68;3.38;;;;;;;;;;5032042;28;20060;-68
2021/03/06 13:19:11;;;;;;;3.50;2.40;;;;;;;;;;5030450;28;20052;-68
2021/03/06 13:21:37;;;;;;;3.97;2.20;;;;;;;;;;5031788;28;20053;-68
2021/03/06 13:24:04;;;;;;;4.03;2.90;;;;;;;;;;5031804;28;20470;-68
2021/03/06 13:26:30;;;;;;;6.05;3.15;;;;;;;;;;5032061;28;20052;-68
2021/03/06 13:28:56;;;;;;;5.78;3.25;;;;;;;;;;5031609;28;20464;-68
2021/03/06 13:31:22;;;;;;;5.28;2.78;;;;;;;;;;5031908;28;20042;-68
2021/03/06 13:33:48;;;;;;;4.28;2.50;;;;;;;;;;5031968;28;20535;-68
2021/03/06 13:36:14;;;;;;;5.88;2.78;;;;;;;;;;5032191;28;20045;-68
2021/03/06 13:38:41;;;;;;;7.32;3.80;;;;;;;;;;5031607;28;20049;-68
2021/03/06 13:41:08;;;;;;;4.78;2.88;;;;;;;;;;5031136;28;20092;-68
2021/03/06 13:43:34;;;;;;;4.70;2.80;;;;;;;;;;5030479;28;20080;-68
2021/03/06 13:46:00;;;;;;;4.88;3.22;;;;;;;;;;5030396;28;20041;-68
2021/03/06 13:48:26;;;;;;;10.20;5.47;;;;;;;;;;5028258;28;20439;-68
2021/03/06 13:50:53;;;;;;;5.10;3.55;;;;;;;;;;5030875;28;20398;-68
2021/03/06 13:53:19;;;;;;;4.88;2.78;;;;;;;;;;5030052;28;20053;-68
2021/03/06 13:55:45;;;;;;;4.35;2.55;;;;;;;;;;5030482;28;20084;-68
2021/03/06 13:58:11;;;;;;;5.07;2.75;;;;;;;;;;5030402;28;20517;-68
2021/03/06 14:00:38;;;;;;;4.45;2.53;;;;;;;;;;5030788;28;20132;-68
2021/03/06 14:03:04;;;;;;;4.35;2.80;;;;;;;;;;5028689;28;20056;-68
2021/03/06 14:05:30;;;;;;;6.35;2.78;;;;;;;;;;5027773;28;20444;-68
2021/03/06 14:07:56;;;;;;;6.30;3.47;;;;;;;;;;5030249;28;20041;-68
2021/03/06 14:10:22;;;;;;;5.70;2.90;;;;;;;;;;5030634;28;20049;-68
2021/03/06 14:12:49;;;;;;;5.03;3.20;;;;;;;;;;5028768;28;20494;-68
2021/03/06 14:15:16;;;;;;;5.07;2.83;;;;;;;;;;5029309;28;20060;-68
2021/03/06 14:17:42;;;;;;;4.95;3.15;;;;;;;;;;5031284;28;20379;-68
2021/03/06 14:20:09;;;;;;;5.25;2.92;;;;;;;;;;5031052;28;20049;-69
2021/03/06 14:22:36;;;;;;;4.63;2.88;;;;;;;;;;5030809;28;20050;-68
2021/03/06 14:25:03;;;;;;;4.68;2.70;;;;;;;;;;5028415;28;20041;-68
2021/03/06 14:27:30;;;;;;;6.53;3.30;;;;;;;;;;5030079;28;20401;-68
2021/03/06 14:29:57;;;;;;;5.63;2.83;;;;;;;;;;5033153;28;20099;-68
2021/03/06 14:32:23;;;;;;;3.65;2.45;;;;;;;;;;5034933;28;20052;-68
2021/03/06 14:34:50;;;;;;;3.88;2.80;;;;;;;;;;5035222;28;20401;-68
2021/03/06 14:37:16;;;;;;;4.45;2.50;;;;;;;;;;5035524;28;20053;-68
2021/03/06 14:39:44;;;;;;;5.25;2.90;;;;;;;;;;5035370;28;20045;-68
2021/03/06 14:42:10;;;;;;;4.05;2.78;;;;;;;;;;5035405;28;20519;-68